Time;durP1;ratioP1;P1;durP2;ratioP2;P2;SDS_P1;SDS_P2;PMS_P1;PMS_P2;Temp;Humidity;BMP_temperature;BMP_pressure;BME280_temperature;BME280_humidity;BME280_pressure;Samples;Min_cycle;Max_cycle;Signal;HPM_P1;HPM_P2
2023/02/17 00:03:12;;;;;;;6.57;3.65;;;11.10;99.90;;;;;;10048357;28;20032;-68
2023/02/17 00:08:03;;;;;;;5.80;3.30;;;11.20;99.90;;;;;;10018178;28;20056;-63
2023/02/17 00:12:53;;;;;;;5.13;2.60;;;11.20;99.90;;;;;;10023611;28;20014;-68
2023/02/17 00:17:44;;;;;;;4.35;2.65;;;11.20;99.90;;;;;;10005854;28;20022;-70
2023/02/17 00:22:35;;;;;;;3.92;3.03;;;11.20;99.90;;;;;;10049341;28;20104;-66
2023/02/17 00:27:27;;;;;;;6.60;3.35;;;11.20;99.90;;;;;;10063280;28;20131;-65
2023/02/17 00:32:17;;;;;;;4.35;2.65;;;11.30;99.90;;;;;;10062159;28;20109;-61
2023/02/17 00:37:08;;;;;;;4.70;2.80;;;11.30;99.90;;;;;;10062846;28;20100;-64
2023/02/17 00:41:59;;;;;;;5.28;3.38;;;11.30;99.90;;;;;;10061468;28;20040;-62
2023/02/17 00:46:50;;;;;;;5.22;2.83;;;11.30;99.90;;;;;;10025268;28;20029;-64
2023/02/17 00:51:41;;;;;;;6.28;3.00;;;11.20;99.90;;;;;;10021965;28;20489;-63
2023/02/17 00:56:31;;;;;;;7.05;3.17;;;11.30;99.90;;;;;;10039914;28;20021;-63
2023/02/17 01:01:22;;;;;;;7.00;3.30;;;11.20;99.90;;;;;;10052436;28;20032;-64
2023/02/17 01:06:22;;;;;;;8.95;4.10;;;11.20;99.90;;;;;;10060450;28;20112;-64
2023/02/17 01:11:21;;;;;;;6.75;4.00;;;11.20;99.90;;;;;;10059186;28;20493;-63
2023/02/17 01:16:27;;;;;;;6.57;3.58;;;11.20;99.90;;;;;;10059946;28;20265;-65
2023/02/17 01:21:18;;;;;;;;;;;11.30;99.90;;;;;;10053803;28;20047;-62
2023/02/17 01:26:14;;;;;;;5.13;2.85;;;11.30;99.90;;;;;;10045211;28;20397;-61
2023/02/17 01:31:07;;;;;;;7.35;3.22;;;11.30;99.90;;;;;;10060390;28;20119;-66
2023/02/17 01:36:02;;;;;;;6.13;3.53;;;11.30;99.90;;;;;;10062125;28;20569;-66
2023/02/17 01:40:53;;;;;;;3.70;3.25;;;11.20;99.90;;;;;;10058810;28;20038;-64
2023/02/17 01:45:56;;;;;;;6.80;3.60;;;11.20;99.90;;;;;;10059392;28;20080;-63
2023/02/17 01:51:13;;;;;;;5.57;2.70;;;11.20;99.90;;;;;;10047323;28;20041;-66
2023/02/17 01:56:05;;;;;;;6.57;3.00;;;11.10;99.90;;;;;;10053643;28;20034;-64
2023/02/17 02:00:58;;;;;;;5.95;2.83;;;11.20;99.90;;;;;;10052364;28;20029;-64
2023/02/17 02:05:50;;;;;;;7.43;3.78;;;11.20;99.90;;;;;;10060492;28;20021;-63
2023/02/17 02:10:40;;;;;;;7.25;3.67;;;11.30;99.90;;;;;;10058293;28;20115;-64
2023/02/17 02:16:01;;;;;;;6.97;3.50;;;11.30;99.90;;;;;;10052024;28;20025;-64
2023/02/17 02:21:20;;;;;;;5.43;2.90;;;11.30;99.90;;;;;;10027907;28;20032;-62
2023/02/17 02:26:42;;;;;;;4.88;2.75;;;11.40;99.90;;;;;;10055554;28;20029;-62
2023/02/17 02:31:54;;;;;;;5.35;3.35;;;11.30;99.90;;;;;;10036571;28;20115;-63
2023/02/17 02:37:05;;;;;;;7.30;2.53;;;11.30;99.90;;;;;;10040887;28;20580;-63
2023/02/17 02:42:00;;;;;;;3.83;2.40;;;11.30;99.90;;;;;;10058620;28;20475;-63
2023/02/17 02:47:06;;;;;;;7.10;2.67;;;11.30;99.90;;;;;;10057896;28;20037;-62
2023/02/17 02:52:17;;;;;;;4.78;3.08;;;11.30;99.90;;;;;;10057579;28;20037;-64
2023/02/17 02:57:26;;;;;;;3.20;2.72;;;11.30;99.90;;;;;;10058931;28;20053;-65
2023/02/17 03:02:54;;;;;;;5.53;2.60;;;11.30;99.90;;;;;;10049934;28;20063;-64
2023/02/17 03:08:17;;;;;;;4.78;2.47;;;11.40;99.90;;;;;;10041019;28;20041;-63
2023/02/17 03:13:08;;;;;;;5.30;2.30;;;11.30;99.90;;;;;;10045527;28;20052;-62
2023/02/17 03:18:01;;;;;;;4.88;2.45;;;11.40;99.90;;;;;;10031183;28;20018;-63
2023/02/17 03:22:51;;;;;;;4.57;2.50;;;11.40;99.90;;;;;;10032639;28;20034;-64
2023/02/17 03:27:42;;;;;;;4.90;2.72;;;11.30;99.90;;;;;;10062128;28;20060;-65
2023/02/17 03:32:33;;;;;;;4.10;2.50;;;11.40;99.90;;;;;;10063274;28;20036;-65
2023/02/17 03:37:23;;;;;;;3.05;2.25;;;11.40;99.90;;;;;;10034111;28;20064;-62
2023/02/17 03:42:14;;;;;;;2.17;1.80;;;11.30;99.90;;;;;;10063267;28;20025;-63
2023/02/17 03:47:05;;;;;;;6.18;2.65;;;11.30;99.90;;;;;;10054038;28;20546;-65
2023/02/17 03:51:57;;;;;;;2.55;1.30;;;11.30;99.90;;;;;;10066409;28;20048;-64
2023/02/17 03:56:47;;;;;;;3.10;1.20;;;11.30;99.90;;;;;;10063899;28;20056;-62
2023/02/17 04:01:38;;;;;;;1.33;0.95;;;11.40;99.90;;;;;;10050921;28;20029;-64
2023/02/17 04:06:29;;;;;;;2.13;1.33;;;11.40;99.90;;;;;;10055456;28;20396;-67
2023/02/17 04:11:20;;;;;;;1.95;1.48;;;11.40;99.90;;;;;;10058503;28;20407;-62
2023/02/17 04:16:10;;;;;;;0.77;0.57;;;11.40;99.90;;;;;;10064466;28;20090;-63
2023/02/17 04:21:01;;;;;;;2.47;1.05;;;11.50;99.90;;;;;;10068555;28;20517;-63
2023/02/17 04:25:52;;;;;;;1.50;0.85;;;11.40;99.90;;;;;;10050960;28;20044;-63
2023/02/17 04:30:45;;;;;;;1.25;1.10;;;11.40;99.90;;;;;;10051183;28;20141;-63
2023/02/17 04:35:36;;;;;;;1.83;1.33;;;11.50;99.90;;;;;;10022128;28;20065;-63
2023/02/17 04:40:26;;;;;;;2.67;1.42;;;11.40;99.90;;;;;;10057113;28;20515;-62
2023/02/17 04:45:17;;;;;;;2.95;1.40;;;11.40;99.90;;;;;;10063492;28;20188;-64
2023/02/17 04:50:09;;;;;;;3.47;1.33;;;11.40;99.90;;;;;;10062549;28;20244;-64
2023/02/17 04:55:00;;;;;;;3.38;1.30;;;11.40;99.90;;;;;;10062514;28;20487;-63
2023/02/17 04:59:50;;;;;;;2.22;1.13;;;11.40;99.90;;;;;;10057775;28;20029;-65
2023/02/17 05:04:41;;;;;;;1.80;1.00;;;11.40;99.90;;;;;;10061187;28;20108;-65
2023/02/17 05:09:32;;;;;;;1.42;1.02;;;11.40;99.90;;;;;;10051224;28;20030;-63
2023/02/17 05:14:22;;;;;;;2.28;1.20;;;11.40;99.90;;;;;;10006415;28;20165;-65
2023/02/17 05:19:13;;;;;;;2.33;1.30;;;11.50;99.90;;;;;;10023033;28;20033;-64
2023/02/17 05:24:04;;;;;;;2.95;1.20;;;11.40;99.90;;;;;;10043092;28;20423;-64
2023/02/17 05:28:55;;;;;;;3.35;1.30;;;11.50;99.90;;;;;;10020081;28;20096;-64
2023/02/17 05:33:45;;;;;;;2.03;1.25;;;11.50;99.90;;;;;;10051568;28;20049;-63
2023/02/17 05:38:38;;;;;;;1.30;1.05;;;11.50;99.90;;;;;;10047577;28;20091;-63
2023/02/17 05:43:29;;;;;;;3.17;1.33;;;11.50;99.90;;;;;;10059442;28;20029;-62
2023/02/17 05:48:19;;;;;;;2.45;1.40;;;11.50;99.90;;;;;;10059470;28;20034;-63
2023/02/17 05:53:10;;;;;;;1.75;1.13;;;11.50;99.90;;;;;;10059881;28;20029;-63
2023/02/17 05:58:01;;;;;;;2.83;1.15;;;11.50;99.90;;;;;;10059258;28;20634;-63
2023/02/17 06:02:52;;;;;;;3.05;1.42;;;11.50;99.90;;;;;;10020556;28;20430;-62
2023/02/17 06:07:43;;;;;;;2.63;1.50;;;11.50;99.90;;;;;;10051316;28;20103;-63
2023/02/17 06:12:33;;;;;;;1.00;0.90;;;11.50;99.90;;;;;;10058163;28;20252;-62
2023/02/17 06:17:24;;;;;;;1.65;1.30;;;11.50;99.90;;;;;;10058743;28;20450;-67
2023/02/17 06:22:15;;;;;;;3.30;1.70;;;11.50;99.90;;;;;;10056918;28;20532;-64
2023/02/17 06:27:06;;;;;;;2.63;1.00;;;11.50;99.90;;;;;;10051871;28;20411;-65
2023/02/17 06:31:56;;;;;;;4.15;1.40;;;11.50;99.90;;;;;;10058112;28;20036;-66
2023/02/17 06:36:47;;;;;;;1.75;1.35;;;11.50;99.90;;;;;;10058010;28;20463;-67
2023/02/17 06:41:38;;;;;;;2.90;1.40;;;11.60;99.90;;;;;;10057494;28;20033;-69
2023/02/17 06:46:29;;;;;;;2.13;1.20;;;11.60;99.90;;;;;;10037088;28;20040;-68
2023/02/17 06:51:23;;;;;;;1.40;1.00;;;11.60;99.90;;;;;;10057762;28;20483;-65
2023/02/17 06:56:13;;;;;;;2.88;1.30;;;11.60;99.90;;;;;;10040757;28;20025;-64
2023/02/17 07:01:04;;;;;;;1.65;1.05;;;11.60;99.90;;;;;;10054064;28;20029;-64
2023/02/17 07:05:58;;;;;;;5.45;1.30;;;11.70;99.90;;;;;;10066408;28;20056;-65
2023/02/17 07:10:49;;;;;;;2.53;1.15;;;11.70;99.90;;;;;;10059283;28;20030;-64
2023/02/17 07:15:40;;;;;;;1.17;0.98;;;11.70;99.90;;;;;;10026092;28;20030;-64
2023/02/17 07:20:31;;;;;;;2.97;0.93;;;11.80;99.90;;;;;;10042344;28;20030;-69
2023/02/17 07:25:21;;;;;;;1.38;0.90;;;11.80;99.90;;;;;;10053305;28;20185;-64
2023/02/17 07:30:12;;;;;;;2.17;1.25;;;11.90;99.90;;;;;;10045719;28;20147;-62
2023/02/17 07:35:03;;;;;;;1.95;1.13;;;11.90;99.90;;;;;;10044664;28;20041;-66
2023/02/17 07:39:56;;;;;;;2.47;1.10;;;12.00;99.90;;;;;;10048762;28;20022;-70
2023/02/17 07:44:46;;;;;;;3.28;1.45;;;12.10;99.90;;;;;;10046609;28;20029;-69
2023/02/17 07:49:37;;;;;;;2.30;1.40;;;12.20;99.90;;;;;;10044183;28;20033;-69
2023/02/17 07:54:28;;;;;;;2.78;1.63;;;12.20;99.90;;;;;;10024517;28;20132;-68
2023/02/17 07:59:18;;;;;;;1.73;1.02;;;12.20;99.90;;;;;;10043349;28;20053;-68
2023/02/17 08:04:09;;;;;;;1.98;1.10;;;12.20;99.90;;;;;;10046802;28;20022;-59
2023/02/17 08:14:09;;;;;;;2.55;1.40;;;12.20;99.90;;;;;;10044149;28;20024;-61
2023/02/17 08:19:00;;;;;;;2.20;1.40;;;12.10;99.90;;;;;;10045285;28;20029;-65
2023/02/17 08:23:51;;;;;;;3.55;1.70;;;12.10;99.90;;;;;;10053488;28;20029;-65
2023/02/17 08:28:43;;;;;;;9.27;1.45;;;12.00;99.90;;;;;;10028870;28;20029;-65
2023/02/17 08:33:33;;;;;;;2.78;2.35;;;12.00;99.90;;;;;;10023544;28;20050;-66
2023/02/17 08:38:25;;;;;;;3.78;1.55;;;12.00;99.90;;;;;;10042798;28;20021;-66
2023/02/17 08:43:17;;;;;;;3.63;1.70;;;12.00;99.90;;;;;;10024744;28;20022;-65
2023/02/17 08:48:07;;;;;;;3.88;2.30;;;12.00;99.90;;;;;;10041360;28;20044;-67
2023/02/17 08:52:58;;;;;;;5.85;2.20;;;12.10;99.90;;;;;;10040125;28;20036;-64
2023/02/17 08:57:49;;;;;;;3.10;1.75;;;12.10;99.90;;;;;;10041268;28;20037;-65
2023/02/17 09:02:43;;;;;;;6.72;1.67;;;12.10;99.90;;;;;;10042054;28;20496;-67
2023/02/17 09:07:34;;;;;;;2.92;2.10;;;12.10;99.90;;;;;;10041592;28;20053;-65
2023/02/17 09:12:25;;;;;;;4.30;1.60;;;12.30;99.90;;;;;;10042201;28;20033;-61
2023/02/17 09:17:15;;;;;;;2.80;1.60;;;12.60;99.90;;;;;;10038999;28;20025;-63
2023/02/17 09:22:06;;;;;;;1.25;0.95;;;12.60;99.90;;;;;;10046582;28;20106;-67
2023/02/17 09:26:57;;;;;;;2.65;1.48;;;12.70;99.90;;;;;;10041239;28;20033;-64
2023/02/17 09:31:47;;;;;;;1.42;1.05;;;13.00;99.90;;;;;;10040524;28;20034;-65
2023/02/17 09:36:40;;;;;;;3.55;1.63;;;13.00;99.90;;;;;;10044638;28;20124;-65
2023/02/17 09:41:46;;;;;;;3.30;1.33;;;13.00;99.90;;;;;;10042827;28;20467;-62
2023/02/17 09:46:44;;;;;;;2.67;1.10;;;12.90;99.90;;;;;;10032179;28;20033;-66
2023/02/17 09:51:41;;;;;;;1.95;1.08;;;12.80;99.90;;;;;;10031814;28;20038;-65
2023/02/17 09:56:39;;;;;;;1.98;1.25;;;12.80;99.90;;;;;;10036991;28;20087;-68
2023/02/17 10:01:33;;;;;;;1.98;1.30;;;12.90;99.90;;;;;;10044079;28;20030;-65
2023/02/17 10:06:29;;;;;;;1.88;1.42;;;12.90;99.90;;;;;;10042781;28;20112;-64
2023/02/17 10:11:35;;;;;;;2.50;2.00;;;13.00;99.90;;;;;;10039459;28;20124;-67
2023/02/17 10:16:38;;;;;;;3.45;1.30;;;13.10;99.90;;;;;;10037498;28;20127;-64
2023/02/17 10:21:35;;;;;;;3.28;2.03;;;13.10;99.90;;;;;;10042208;28;20038;-64
2023/02/17 10:26:48;;;;;;;5.00;1.75;;;13.20;99.90;;;;;;10040167;28;20531;-64
2023/02/17 10:31:46;;;;;;;2.55;1.40;;;13.20;99.90;;;;;;10037048;28;20289;-65
2023/02/17 10:37:00;;;;;;;4.15;1.65;;;13.20;99.90;;;;;;10035631;28;20083;-64
2023/02/17 10:41:54;;;;;;;4.45;2.20;;;13.40;99.90;;;;;;10064107;28;20744;-65
2023/02/17 10:46:47;;;;;;;3.83;1.75;;;13.60;99.90;;;;;;10042858;28;20022;-64
2023/02/17 10:51:37;;;;;;;2.55;1.80;;;14.00;99.90;;;;;;10009473;28;20041;-62
2023/02/17 10:56:40;;;;;;;2.70;1.55;;;14.40;99.90;;;;;;10047465;28;20041;-65
2023/02/17 11:01:32;;;;;;;2.75;1.77;;;14.30;99.90;;;;;;10047364;28;20465;-62
2023/02/17 11:06:24;;;;;;;2.33;1.40;;;14.10;99.90;;;;;;10051459;28;20043;-60
2023/02/17 11:11:21;;;;;;;1.38;0.98;;;14.00;99.90;;;;;;10052619;28;20095;-63
2023/02/17 11:16:27;;;;;;;2.30;1.10;;;14.00;99.90;;;;;;10052006;28;20030;-65
2023/02/17 11:21:18;;;;;;;1.23;0.80;;;13.90;99.90;;;;;;10061535;28;20076;-62
2023/02/17 11:26:20;;;;;;;1.27;0.70;;;13.80;99.90;;;;;;10038547;28;20123;-62
2023/02/17 11:31:30;;;;;;;1.40;0.75;;;13.90;99.90;;;;;;10046214;28;20107;-60
2023/02/17 11:36:29;;;;;;;1.80;0.90;;;13.90;99.90;;;;;;10050341;28;20599;-63
2023/02/17 11:41:20;;;;;;;3.78;1.88;;;13.90;99.90;;;;;;10051722;28;20567;-64
2023/02/17 11:46:52;;;;;;;1.70;1.00;;;13.90;99.90;;;;;;10054725;28;20148;-66
2023/02/17 11:52:04;;;;;;;4.25;1.75;;;14.00;99.90;;;;;;10062668;28;20037;-65
2023/02/17 11:57:03;;;;;;;2.38;1.33;;;13.90;99.90;;;;;;10059892;28;20619;-65
2023/02/17 12:02:04;;;;;;;3.13;2.78;;;13.90;99.90;;;;;;10036714;28;20395;-65
2023/02/17 12:07:06;;;;;;;3.40;1.90;;;13.90;99.90;;;;;;10045935;28;20141;-64
2023/02/17 12:12:20;;;;;;;4.13;1.80;;;14.00;99.90;;;;;;10062132;28;20531;-62
2023/02/17 12:17:46;;;;;;;3.35;2.03;;;14.20;99.90;;;;;;10062638;28;20025;-64
2023/02/17 12:23:08;;;;;;;3.58;1.52;;;14.40;99.90;;;;;;10063113;28;20119;-63
2023/02/17 12:28:14;;;;;;;2.78;1.10;;;14.50;99.90;;;;;;10059128;28;20037;-61
2023/02/17 12:33:24;;;;;;;1.98;1.17;;;14.40;99.90;;;;;;10056658;28;20488;-62
2023/02/17 12:38:24;;;;;;;2.08;1.30;;;14.50;99.90;;;;;;10062402;28;20029;-61
2023/02/17 12:43:15;;;;;;;3.13;1.63;;;14.50;99.90;;;;;;10061464;28;20024;-61
2023/02/17 12:48:18;;;;;;;2.90;1.75;;;14.50;99.90;;;;;;10044261;28;20041;-63
2023/02/17 12:53:18;;;;;;;4.38;1.77;;;14.50;99.90;;;;;;10057022;28;20026;-62
2023/02/17 12:58:17;;;;;;;6.88;1.98;;;14.70;99.90;;;;;;10047003;28;20561;-62
2023/02/17 13:03:08;;;;;;;2.78;2.17;;;14.80;99.90;;;;;;10050645;28;20022;-62
2023/02/17 13:08:02;;;;;;;3.70;2.17;;;14.70;99.90;;;;;;10025936;28;20026;-61
2023/02/17 13:13:06;;;;;;;4.10;2.00;;;14.60;99.90;;;;;;10023051;28;20026;-63
2023/02/17 13:18:01;;;;;;;4.07;1.90;;;14.50;99.90;;;;;;10023563;28;20057;-67
2023/02/17 13:23:07;;;;;;;4.13;2.00;;;14.50;99.90;;;;;;10030776;28;20065;-65
2023/02/17 13:28:14;;;;;;;4.40;1.92;;;14.50;99.90;;;;;;10028152;28;20018;-65
2023/02/17 13:33:24;;;;;;;6.00;2.17;;;14.60;99.90;;;;;;10045599;28;20029;-65
2023/02/17 13:38:29;;;;;;;4.40;1.90;;;14.70;99.90;;;;;;10028340;28;20319;-68
2023/02/17 13:43:22;;;;;;;4.23;2.37;;;14.80;99.90;;;;;;10027786;28;20645;-66
2023/02/17 13:48:25;;;;;;;2.33;1.67;;;15.00;99.90;;;;;;10042944;28;20487;-66
2023/02/17 13:53:32;;;;;;;2.90;1.85;;;15.10;99.90;;;;;;10040491;28;20527;-66
2023/02/17 13:58:31;;;;;;;2.53;1.75;;;15.00;99.90;;;;;;10045321;28;20022;-64
2023/02/17 14:03:32;;;;;;;2.55;1.80;;;15.10;99.90;;;;;;10044301;28;20025;-65
2023/02/17 14:08:40;;;;;;;2.22;1.40;;;15.10;99.90;;;;;;10041988;28;20056;-65
2023/02/17 14:13:30;;;;;;;1.50;1.10;;;15.10;99.90;;;;;;10040660;28;20026;-65
2023/02/17 14:18:37;;;;;;;2.45;1.63;;;15.00;99.90;;;;;;10043271;28;20022;-65
2023/02/17 14:23:41;;;;;;;1.88;1.20;;;15.10;99.90;;;;;;10041269;28;20021;-63
2023/02/17 14:28:32;;;;;;;0.90;0.90;;;15.60;99.90;;;;;;10042603;28;20099;-63
2023/02/17 14:33:24;;;;;;;2.13;1.52;;;15.90;99.90;;;;;;10045965;28;20409;-65
2023/02/17 14:38:28;;;;;;;1.42;0.80;;;16.10;99.90;;;;;;10045620;28;20479;-67
2023/02/17 14:43:18;;;;;;;1.15;0.73;;;16.20;99.90;;;;;;10031431;28;20551;-64
2023/02/17 14:48:09;;;;;;;0.80;0.77;;;16.10;99.90;;;;;;10052307;28;20022;-63
2023/02/17 14:53:00;;;;;;;0.93;0.70;;;16.30;99.90;;;;;;10028526;28;20037;-62
2023/02/17 14:57:50;;;;;;;0.75;0.60;;;16.60;99.90;;;;;;10041061;28;20022;-65
2023/02/17 15:02:41;;;;;;;2.85;1.08;;;16.00;99.90;;;;;;10045791;28;20443;-65
2023/02/17 15:07:32;;;;;;;1.13;0.70;;;15.60;99.90;;;;;;10039621;28;20104;-65
2023/02/17 15:12:23;;;;;;;1.92;0.98;;;15.40;99.90;;;;;;10042092;28;20384;-62
2023/02/17 15:17:14;;;;;;;2.08;1.10;;;15.20;99.90;;;;;;10014360;28;20088;-63
2023/02/17 15:22:06;;;;;;;1.42;1.08;;;15.20;99.90;;;;;;10063691;28;20032;-61
2023/02/17 15:26:56;;;;;;;0.82;0.70;;;15.00;99.90;;;;;;10046237;28;20049;-65
2023/02/17 15:31:48;;;;;;;1.95;1.05;;;14.90;99.90;;;;;;10034544;28;20500;-63
2023/02/17 15:36:39;;;;;;;2.15;1.02;;;14.90;99.90;;;;;;10028278;28;20053;-68
2023/02/17 15:41:29;;;;;;;1.67;1.58;;;14.90;99.90;;;;;;10064162;28;20033;-64
2023/02/17 15:46:25;;;;;;;1.80;1.00;;;14.90;99.90;;;;;;10043830;28;20018;-63
2023/02/17 15:51:18;;;;;;;0.82;0.40;;;14.90;99.90;;;;;;10025232;28;20112;-63
2023/02/17 15:56:16;;;;;;;1.10;0.50;;;14.90;99.90;;;;;;10033152;28;20419;-64
2023/02/17 16:01:17;;;;;;;1.00;0.82;;;14.90;99.90;;;;;;10035686;28;20339;-63
2023/02/17 16:06:08;;;;;;;1.75;0.70;;;14.80;99.90;;;;;;10042125;28;20026;-66
2023/02/17 16:10:59;;;;;;;3.05;1.02;;;14.90;99.90;;;;;;10027899;28;20392;-62
2023/02/17 16:15:50;;;;;;;1.17;0.65;;;15.00;99.90;;;;;;10049924;28;20025;-64
2023/02/17 16:20:40;;;;;;;1.10;0.80;;;14.90;99.90;;;;;;10058523;28;20033;-61
2023/02/17 16:25:31;;;;;;;1.38;0.65;;;14.80;99.90;;;;;;10044510;28;20063;-64
2023/02/17 16:30:28;;;;;;;1.88;0.60;;;14.80;99.90;;;;;;10059853;28;20256;-65
2023/02/17 16:35:22;;;;;;;1.02;0.75;;;14.60;99.90;;;;;;10062340;28;20040;-63
2023/02/17 16:40:17;;;;;;;1.13;0.80;;;14.60;99.90;;;;;;10063106;28;20184;-69
2023/02/17 16:45:23;;;;;;;1.83;1.10;;;14.50;99.90;;;;;;10033210;28;20025;-61
2023/02/17 16:50:32;;;;;;;1.98;1.00;;;14.50;99.90;;;;;;10059029;28;20048;-63
2023/02/17 16:55:27;;;;;;;1.33;0.70;;;14.40;99.90;;;;;;10052035;28;20113;-61
2023/02/17 17:00:22;;;;;;;0.93;0.63;;;14.30;99.90;;;;;;10049839;28;20071;-63
2023/02/17 17:05:13;;;;;;;1.17;0.80;;;14.30;99.90;;;;;;10059384;28;20532;-62
2023/02/17 17:10:06;;;;;;;1.45;1.02;;;14.30;99.90;;;;;;10060498;28;20042;-62
2023/02/17 17:14:57;;;;;;;2.10;0.88;;;14.20;99.90;;;;;;10057299;28;20034;-62
2023/02/17 17:19:47;;;;;;;2.08;0.75;;;14.20;99.90;;;;;;10062447;28;20479;-63
2023/02/17 17:24:38;;;;;;;1.70;0.93;;;14.20;99.90;;;;;;10056874;28;20511;-63
2023/02/17 17:29:29;;;;;;;1.20;0.80;;;14.10;99.90;;;;;;10057166;28;20407;-61
2023/02/17 17:34:19;;;;;;;2.42;1.27;;;14.20;99.90;;;;;;10056236;28;20037;-64
2023/02/17 17:39:20;;;;;;;3.70;2.03;;;14.20;99.90;;;;;;10057698;28;20109;-63
2023/02/17 17:44:11;;;;;;;4.60;2.88;;;14.10;99.90;;;;;;10056960;28;20057;-61
2023/02/17 17:49:04;;;;;;;1.48;1.00;;;14.10;99.90;;;;;;10053993;28;20073;-62
2023/02/17 17:53:56;;;;;;;1.60;1.30;;;14.10;99.90;;;;;;10058805;28;20052;-61
2023/02/17 17:58:47;;;;;;;1.80;1.17;;;14.00;99.90;;;;;;10049152;28;20045;-66
2023/02/17 18:03:38;;;;;;;1.23;0.80;;;14.00;99.90;;;;;;10045947;28;20391;-62
2023/02/17 18:08:29;;;;;;;2.13;1.60;;;14.00;99.90;;;;;;10044420;28;20476;-62
2023/02/17 18:13:20;;;;;;;2.03;0.93;;;14.00;99.90;;;;;;10046549;28;20197;-61
2023/02/17 18:18:12;;;;;;;3.75;1.65;;;13.90;99.90;;;;;;10030035;28;20040;-62
2023/02/17 18:23:02;;;;;;;1.92;1.20;;;14.00;99.90;;;;;;10042648;28;20485;-61
2023/02/17 18:27:55;;;;;;;1.30;0.90;;;14.00;99.90;;;;;;10041360;28;20112;-61
2023/02/17 18:32:46;;;;;;;2.15;1.15;;;13.90;99.90;;;;;;10042482;28;20160;-61
2023/02/17 18:37:39;;;;;;;1.95;1.55;;;13.90;99.90;;;;;;10036514;28;20101;-62
2023/02/17 18:42:29;;;;;;;3.63;1.88;;;13.90;99.90;;;;;;10063140;28;20024;-62
2023/02/17 18:47:21;;;;;;;3.45;1.42;;;13.90;99.90;;;;;;10058719;28;20040;-62
2023/02/17 18:52:12;;;;;;;2.67;1.05;;;13.90;99.90;;;;;;10055104;28;20038;-62
2023/02/17 18:57:02;;;;;;;6.90;2.58;;;13.90;99.90;;;;;;10054305;28;20544;-63
2023/02/17 19:01:53;;;;;;;1.90;1.20;;;13.80;99.90;;;;;;10046397;28;20025;-61
2023/02/17 19:06:44;;;;;;;5.47;1.17;;;13.80;99.90;;;;;;10042166;28;20443;-63
2023/02/17 19:11:35;;;;;;;2.28;1.80;;;13.80;99.90;;;;;;10061388;28;20032;-63
2023/02/17 19:16:28;;;;;;;2.30;1.45;;;13.80;99.90;;;;;;10034619;28;20076;-62
2023/02/17 19:21:19;;;;;;;1.55;1.27;;;13.70;99.90;;;;;;10017388;28;20518;-62
2023/02/17 19:26:12;;;;;;;2.00;1.60;;;13.70;99.90;;;;;;10026455;28;20508;-65
2023/02/17 19:31:14;;;;;;;2.75;1.50;;;13.70;99.90;;;;;;10058584;28;20120;-63
2023/02/17 19:36:10;;;;;;;3.70;2.85;;;13.70;99.90;;;;;;10049895;28;20581;-62
2023/02/17 19:41:06;;;;;;;2.25;1.27;;;13.70;99.90;;;;;;10060284;28;20532;-62
2023/02/17 19:45:57;;;;;;;2.15;1.70;;;13.70;99.90;;;;;;10040691;28;20148;-61
2023/02/17 19:50:47;;;;;;;2.20;1.17;;;13.70;99.90;;;;;;10034868;28;20097;-62
2023/02/17 19:55:38;;;;;;;2.15;1.08;;;13.70;99.90;;;;;;10039234;22;20480;-66
2023/02/17 20:00:29;;;;;;;2.65;1.73;;;13.70;99.90;;;;;;10024053;28;20416;-65
2023/02/17 20:05:19;;;;;;;2.92;1.58;;;13.80;99.90;;;;;;10021976;28;20394;-64
2023/02/17 20:10:11;;;;;;;1.48;1.00;;;13.70;99.90;;;;;;10021648;28;20128;-64
2023/02/17 20:15:02;;;;;;;1.20;1.00;;;13.70;99.90;;;;;;10020973;28;20033;-65
2023/02/17 20:19:53;;;;;;;1.70;0.93;;;13.70;99.90;;;;;;10020564;28;20021;-66
2023/02/17 20:24:43;;;;;;;1.05;0.90;;;13.70;99.90;;;;;;10020214;28;20115;-65
2023/02/17 20:29:35;;;;;;;4.15;1.42;;;13.70;99.90;;;;;;10020541;28;20515;-65
2023/02/17 20:34:32;;;;;;;1.95;1.50;;;13.80;99.90;;;;;;10020420;28;20040;-65
2023/02/17 20:39:24;;;;;;;3.60;1.40;;;13.80;99.90;;;;;;10020774;28;20053;-65
2023/02/17 20:44:16;;;;;;;2.15;1.65;;;13.70;99.90;;;;;;10019732;28;20088;-64
2023/02/17 20:49:07;;;;;;;2.00;0.95;;;13.70;99.90;;;;;;10019037;28;20034;-64
2023/02/17 20:53:57;;;;;;;3.38;1.65;;;13.70;99.90;;;;;;10019881;28;20124;-66
2023/02/17 20:58:49;;;;;;;5.97;1.25;;;13.70;99.90;;;;;;10021728;28;20026;-63
2023/02/17 21:03:40;;;;;;;2.25;1.40;;;13.70;99.90;;;;;;10008138;28;20488;-64
2023/02/17 21:08:31;;;;;;;2.38;1.38;;;13.60;99.90;;;;;;10011780;28;20048;-64
2023/02/17 21:13:22;;;;;;;2.17;1.30;;;13.60;99.90;;;;;;10011580;28;20029;-64
2023/02/17 21:18:12;;;;;;;1.30;1.10;;;13.60;99.90;;;;;;10016464;28;20041;-65
2023/02/17 21:23:03;;;;;;;1.30;0.88;;;13.60;99.90;;;;;;10022156;28;20492;-65
2023/02/17 21:27:54;;;;;;;3.22;1.35;;;13.60;99.90;;;;;;10017885;28;20022;-63
2023/02/17 21:32:45;;;;;;;2.50;1.20;;;13.60;99.90;;;;;;10018332;28;20060;-64
2023/02/17 21:37:37;;;;;;;4.28;0.93;;;13.50;99.90;;;;;;10020768;28;20256;-64
2023/02/17 21:47:37;;;;;;;1.35;0.70;;;13.50;99.90;;;;;;10017685;28;20104;-64
2023/02/17 21:52:28;;;;;;;1.75;1.05;;;13.50;99.90;;;;;;10017242;28;20467;-64
2023/02/17 21:57:18;;;;;;;1.30;0.80;;;13.50;99.90;;;;;;10018163;28;20241;-65
2023/02/17 22:02:12;;;;;;;1.38;0.82;;;13.60;99.90;;;;;;10016641;28;20094;-68
2023/02/17 22:07:03;;;;;;;3.90;1.45;;;13.50;99.90;;;;;;10017033;28;20068;-65
2023/02/17 22:11:54;;;;;;;2.00;0.95;;;13.50;99.90;;;;;;10016536;28;20110;-64
2023/02/17 22:16:45;;;;;;;1.70;0.95;;;13.60;99.90;;;;;;10015962;28;20096;-66
2023/02/17 22:21:37;;;;;;;1.85;0.98;;;13.50;99.90;;;;;;10016822;28;20603;-66
2023/02/17 22:26:29;;;;;;;0.60;0.60;;;13.50;99.90;;;;;;10016614;28;20034;-64
2023/02/17 22:31:23;;;;;;;0.93;0.70;;;13.50;99.90;;;;;;9997733;28;20038;-65
2023/02/17 22:36:20;;;;;;;2.58;0.98;;;13.50;99.90;;;;;;10024905;28;20041;-69
2023/02/17 22:41:14;;;;;;;2.72;1.55;;;13.50;99.90;;;;;;10019183;28;20182;-68
2023/02/17 22:46:06;;;;;;;0.68;0.47;;;13.60;99.90;;;;;;10015588;28;20109;-68
2023/02/17 22:50:56;;;;;;;2.25;1.45;;;13.50;99.90;;;;;;10015754;28;20071;-69
2023/02/17 22:55:55;;;;;;;1.15;0.90;;;13.50;99.90;;;;;;10016233;28;20060;-66
2023/02/17 23:00:46;;;;;;;2.08;0.85;;;13.50;99.90;;;;;;10016117;28;20418;-66
2023/02/17 23:05:37;;;;;;;0.98;0.88;;;13.50;99.90;;;;;;10014663;28;20461;-65
2023/02/17 23:10:28;;;;;;;1.88;1.05;;;13.50;99.90;;;;;;10015046;28;20030;-67
2023/02/17 23:15:18;;;;;;;3.17;1.38;;;13.40;99.90;;;;;;10014980;28;20062;-66
2023/02/17 23:20:09;;;;;;;1.23;0.73;;;13.40;99.90;;;;;;10015002;28;20026;-70
2023/02/17 23:25:00;;;;;;;2.05;0.82;;;13.50;99.90;;;;;;10014413;28;20022;-69
2023/02/17 23:29:51;;;;;;;1.20;0.93;;;13.50;99.90;;;;;;10012641;28;20049;-66
2023/02/17 23:34:41;;;;;;;1.40;1.00;;;13.50;99.90;;;;;;10016168;28;20083;-65
2023/02/17 23:39:36;;;;;;;1.15;1.05;;;13.60;99.90;;;;;;10018693;28;20045;-66
2023/02/17 23:44:27;;;;;;;0.70;0.60;;;13.60;99.90;;;;;;10021927;28;20140;-65
2023/02/17 23:49:18;;;;;;;1.42;1.15;;;13.60;99.90;;;;;;10021320;28;20113;-64
2023/02/17 23:54:09;;;;;;;1.13;0.75;;;13.60;99.90;;;;;;10019940;28;20168;-60
2023/02/17 23:59:00;;;;;;;1.42;0.90;;;13.50;99.90;;;;;;10022177;28;20180;-67
